createdAt,value
2018-12-19T00:00:49.288Z,6.82
2018-12-19T00:01:49.242Z,6.75
2018-12-19T00:02:49.209Z,6.72
2018-12-19T00:03:49.168Z,6.74
2018-12-19T00:04:49.132Z,6.74
2018-12-19T00:05:49.098Z,6.78
2018-12-19T00:06:49.064Z,6.75
2018-12-19T00:07:49.023Z,6.79
2018-12-19T00:08:48.997Z,6.67
2018-12-19T00:09:48.949Z,6.69
2018-12-19T00:10:48.913Z,6.79
2018-12-19T00:11:48.885Z,6.82
2018-12-19T00:12:48.846Z,6.78
2018-12-19T00:13:48.800Z,6.78
2018-12-19T00:14:48.763Z,6.79
2018-12-19T00:15:48.733Z,6.88
2018-12-19T00:16:48.697Z,6.88
2018-12-19T00:17:48.660Z,6.85
2018-12-19T00:18:48.619Z,6.79
2018-12-19T00:19:48.573Z,6.87
2018-12-19T00:20:48.538Z,6.85
2018-12-19T00:21:48.504Z,6.85
2018-12-19T00:22:48.469Z,6.82
2018-12-19T00:23:48.441Z,6.87
2018-12-19T00:24:48.399Z,6.82
2018-12-19T00:25:48.363Z,6.81
2018-12-19T00:26:48.329Z,6.87
2018-12-19T00:27:48.294Z,6.85
2018-12-19T00:28:48.271Z,6.96
2018-12-19T00:29:48.266Z,6.93
2018-12-19T00:30:48.181Z,6.97
2018-12-19T00:31:48.144Z,7.00
2018-12-19T00:32:48.108Z,6.92
2018-12-19T00:33:48.067Z,6.95
2018-12-19T00:34:48.034Z,6.92
2018-12-19T00:35:48.001Z,7.05
2018-12-19T00:36:47.955Z,7.14
2018-12-19T00:37:47.933Z,6.99
2018-12-19T00:38:47.890Z,7.10
2018-12-19T00:39:47.869Z,7.06
2018-12-19T00:40:47.816Z,7.06
2018-12-19T00:41:47.783Z,7.02
2018-12-19T00:42:47.751Z,6.99
2018-12-19T00:43:47.717Z,7.02
2018-12-19T00:44:47.669Z,7.03
2018-12-19T00:45:47.644Z,7.18
2018-12-19T00:46:47.600Z,7.18
2018-12-19T00:47:47.568Z,7.14
2018-12-19T00:48:47.528Z,7.20
2018-12-19T00:49:47.494Z,7.24
2018-12-19T00:50:47.446Z,7.17
2018-12-19T00:51:47.410Z,7.20
2018-12-19T00:52:47.374Z,7.15
2018-12-19T00:53:47.346Z,7.28
2018-12-19T00:54:47.311Z,7.24
2018-12-19T00:55:47.259Z,7.29
2018-12-19T00:56:47.241Z,7.24
2018-12-19T00:57:47.194Z,7.32
2018-12-19T00:58:47.166Z,7.28
2018-12-19T00:59:47.124Z,7.32
2018-12-19T01:00:47.094Z,7.36
2018-12-19T01:01:47.047Z,7.25
2018-12-19T01:02:47.016Z,7.35
2018-12-19T01:03:46.994Z,7.33
2018-12-19T01:04:48.169Z,7.32
2018-12-19T01:05:46.914Z,7.39
2018-12-19T01:06:46.865Z,7.33
2018-12-19T01:07:46.838Z,7.35
2018-12-19T01:08:46.801Z,7.35
2018-12-19T01:09:46.767Z,7.29
2018-12-19T01:10:46.717Z,7.39
2018-12-19T01:11:46.692Z,7.40
2018-12-19T01:12:46.654Z,7.36
2018-12-19T01:13:46.615Z,7.45
2018-12-19T01:14:46.577Z,7.40
2018-12-19T01:15:46.544Z,7.39
2018-12-19T01:16:46.501Z,7.33
2018-12-19T01:17:46.472Z,7.35
2018-12-19T01:18:46.440Z,7.45
2018-12-19T01:19:46.405Z,7.40
2018-12-19T01:20:46.368Z,7.42
2018-12-19T01:21:46.321Z,7.36
2018-12-19T01:22:46.292Z,7.39
2018-12-19T01:23:46.252Z,7.47
2018-12-19T01:24:46.215Z,7.35
2018-12-19T01:25:46.183Z,7.42
2018-12-19T01:26:46.151Z,7.47
2018-12-19T01:27:46.126Z,7.45
2018-12-19T01:28:46.071Z,7.39
2018-12-19T01:29:46.041Z,7.36
2018-12-19T01:30:46.003Z,7.39
2018-12-19T01:31:45.958Z,7.40
2018-12-19T01:32:45.926Z,7.47
2018-12-19T01:33:45.903Z,7.47
2018-12-19T01:34:45.861Z,7.38
2018-12-19T01:35:45.831Z,7.45
2018-12-19T01:36:45.782Z,7.47
2018-12-19T01:37:45.771Z,7.48
2018-12-19T01:38:45.711Z,7.45
2018-12-19T01:39:45.681Z,7.47
2018-12-19T01:40:45.644Z,7.51
2018-12-19T01:41:45.603Z,7.48
2018-12-19T01:42:45.574Z,7.50
2018-12-19T01:43:45.541Z,7.51
2018-12-19T01:44:45.497Z,7.48
2018-12-19T01:45:45.452Z,7.48
2018-12-19T01:46:45.429Z,7.48
2018-12-19T01:47:45.386Z,7.48
2018-12-19T01:48:45.344Z,7.48
2018-12-19T01:49:45.314Z,7.43
2018-12-19T01:50:45.274Z,7.51
2018-12-19T01:51:45.237Z,7.50
2018-12-19T01:52:45.207Z,7.47
2018-12-19T01:53:45.171Z,7.53
2018-12-19T01:54:45.131Z,7.53
2018-12-19T01:55:45.093Z,7.42
2018-12-19T01:56:45.058Z,7.51
2018-12-19T01:57:45.021Z,7.47
2018-12-19T01:58:44.983Z,7.40
2018-12-19T01:59:44.947Z,7.45
2018-12-19T02:00:44.917Z,7.42
2018-12-19T02:01:44.873Z,7.48
2018-12-19T02:02:44.832Z,7.48
2018-12-19T02:03:44.814Z,7.47
2018-12-19T02:04:44.774Z,7.45
2018-12-19T02:05:44.735Z,7.47
2018-12-19T02:06:44.698Z,7.51
2018-12-19T02:07:44.668Z,7.47
2018-12-19T02:08:44.627Z,7.56
2018-12-19T02:09:44.597Z,7.58
2018-12-19T02:10:44.555Z,7.61
2018-12-19T02:11:44.514Z,7.57
2018-12-19T02:12:44.488Z,7.57
2018-12-19T02:13:44.447Z,7.47
2018-12-19T02:14:44.403Z,7.45
2018-12-19T02:15:44.368Z,7.54
2018-12-19T02:16:44.338Z,7.56
2018-12-19T02:17:44.304Z,7.50
2018-12-19T02:18:44.265Z,7.47
2018-12-19T02:19:44.229Z,7.51
2018-12-19T02:20:44.188Z,7.48
2018-12-19T02:21:44.160Z,7.40
2018-12-19T02:22:44.138Z,7.51
2018-12-19T02:23:44.085Z,7.50
2018-12-19T02:24:44.050Z,7.48
2018-12-19T02:25:44.014Z,7.48
2018-12-19T02:26:43.988Z,7.50
2018-12-19T02:27:43.954Z,7.51
2018-12-19T02:28:43.903Z,7.54
2018-12-19T02:29:43.869Z,7.38
2018-12-19T02:30:43.830Z,7.48
2018-12-19T02:31:43.808Z,7.43
2018-12-19T02:32:43.761Z,7.48
2018-12-19T02:33:43.731Z,7.35
2018-12-19T02:34:43.684Z,7.32
2018-12-19T02:35:43.660Z,7.50
2018-12-19T02:36:43.628Z,7.54
2018-12-19T02:37:43.581Z,7.47
2018-12-19T02:38:43.540Z,7.42
2018-12-19T02:39:43.510Z,7.38
2018-12-19T02:40:43.470Z,7.39
2018-12-19T02:41:43.448Z,7.47
2018-12-19T02:42:43.401Z,7.45
2018-12-19T02:43:43.370Z,7.47
2018-12-19T02:44:43.329Z,7.42
2018-12-19T02:45:43.301Z,7.48
2018-12-19T02:46:43.244Z,7.50
2018-12-19T02:47:43.224Z,7.51
2018-12-19T02:48:43.179Z,7.45
2018-12-19T02:49:43.149Z,7.43
2018-12-19T02:50:43.103Z,7.50
2018-12-19T02:51:43.064Z,7.51
2018-12-19T02:52:43.039Z,7.53
2018-12-19T02:53:42.999Z,7.45
2018-12-19T02:54:42.963Z,7.50
2018-12-19T02:55:42.920Z,7.42
2018-12-19T02:56:42.886Z,7.42
2018-12-19T02:57:42.851Z,7.51
2018-12-19T02:58:42.817Z,7.47
2018-12-19T02:59:42.786Z,7.51
2018-12-19T03:00:42.757Z,7.53
2018-12-19T03:01:42.713Z,7.50
2018-12-19T03:02:42.674Z,7.42
2018-12-19T03:03:42.640Z,7.45
2018-12-19T03:04:42.611Z,7.39
2018-12-19T03:05:51.232Z,7.35
2018-12-19T03:07:46.975Z,7.53
2018-12-19T03:08:46.901Z,7.36
2018-12-19T03:09:46.869Z,7.39
2018-12-19T03:10:46.836Z,7.45
2018-12-19T03:11:46.791Z,7.48
2018-12-19T03:12:46.762Z,7.50
2018-12-19T03:13:46.720Z,7.50
2018-12-19T03:14:46.695Z,7.50
2018-12-19T03:15:46.656Z,7.51
2018-12-19T03:16:46.618Z,7.43
2018-12-19T03:17:46.581Z,7.50
2018-12-19T03:18:46.541Z,7.51
2018-12-19T03:19:46.510Z,7.40
2018-12-19T03:20:46.466Z,7.50
2018-12-19T03:21:46.441Z,7.50
2018-12-19T03:22:46.405Z,7.47
2018-12-19T03:23:46.365Z,7.53
2018-12-19T03:24:46.326Z,7.48
2018-12-19T03:25:46.290Z,7.48
2018-12-19T03:26:46.247Z,7.39
2018-12-19T03:27:46.221Z,7.43
2018-12-19T03:28:46.182Z,7.48
2018-12-19T03:29:46.147Z,7.50
2018-12-19T03:30:46.118Z,7.45
2018-12-19T03:31:46.074Z,7.45
2018-12-19T03:32:46.040Z,7.51
2018-12-19T03:33:45.996Z,7.50
2018-12-19T03:34:45.970Z,7.53
2018-12-19T03:35:45.936Z,7.51
2018-12-19T03:36:45.891Z,7.48
2018-12-19T03:37:45.856Z,7.53
2018-12-19T03:38:45.823Z,7.47
2018-12-19T03:39:50.267Z,7.57
2018-12-19T03:40:45.757Z,7.47
2018-12-19T03:41:45.716Z,7.54
2018-12-19T03:42:45.677Z,7.53
2018-12-19T03:43:45.639Z,7.50
2018-12-19T03:44:45.601Z,7.53
2018-12-19T03:45:45.568Z,7.60
2018-12-19T03:46:45.532Z,7.58
2018-12-19T03:47:45.509Z,7.51
2018-12-19T03:48:45.466Z,7.66
2018-12-19T03:49:45.421Z,7.60
2018-12-19T03:50:45.387Z,7.54
2018-12-19T03:51:45.343Z,7.61
2018-12-19T03:52:45.313Z,7.58
2018-12-19T03:53:45.274Z,7.61
2018-12-19T03:54:45.244Z,7.60
2018-12-19T03:55:45.209Z,7.63
2018-12-19T03:56:45.170Z,7.61
2018-12-19T03:57:45.143Z,7.66
2018-12-19T03:58:45.098Z,7.61
2018-12-19T03:59:45.068Z,7.69
2018-12-19T04:00:45.022Z,7.61
2018-12-19T04:01:45.000Z,7.66
2018-12-19T04:02:44.958Z,7.66
2018-12-19T04:03:44.920Z,7.60
2018-12-19T04:04:44.879Z,7.63
2018-12-19T04:05:44.842Z,7.73
2018-12-19T04:06:44.810Z,7.63
2018-12-19T04:07:44.782Z,7.66
2018-12-19T04:08:44.736Z,7.61
2018-12-19T04:09:44.701Z,7.57
2018-12-19T04:10:44.670Z,7.66
2018-12-19T04:11:44.630Z,7.67
2018-12-19T04:12:44.595Z,7.63
2018-12-19T04:13:44.549Z,7.63
2018-12-19T04:14:44.525Z,7.67
2018-12-19T04:15:44.480Z,7.77
2018-12-19T04:16:44.451Z,7.76
2018-12-19T04:17:44.419Z,7.82
2018-12-19T04:18:44.385Z,7.72
2018-12-19T04:19:44.352Z,7.77
2018-12-19T04:20:44.310Z,7.79
2018-12-19T04:21:44.270Z,7.82
2018-12-19T04:22:44.235Z,7.75
2018-12-19T04:23:44.205Z,7.75
2018-12-19T04:24:44.164Z,7.72
2018-12-19T04:25:44.129Z,7.70
2018-12-19T04:26:44.091Z,7.77
2018-12-19T04:27:44.055Z,7.83
2018-12-19T04:28:44.026Z,7.73
2018-12-19T04:29:43.985Z,7.87
2018-12-19T04:30:43.969Z,7.85
2018-12-19T04:31:43.913Z,7.85
2018-12-19T04:32:43.878Z,7.90
2018-12-19T04:33:43.842Z,7.87
2018-12-19T04:34:43.817Z,7.94
2018-12-19T04:35:43.761Z,7.91
2018-12-19T04:36:43.729Z,7.88
2018-12-19T04:37:43.710Z,7.85
2018-12-19T04:38:43.646Z,7.94
2018-12-19T04:39:43.622Z,7.93
2018-12-19T04:40:43.600Z,7.90
2018-12-19T04:41:43.559Z,7.94
2018-12-19T04:42:43.515Z,7.90
2018-12-19T04:43:43.486Z,7.94
2018-12-19T04:44:43.445Z,8.03
2018-12-19T04:45:43.402Z,7.95
2018-12-19T04:46:43.367Z,7.91
2018-12-19T04:47:43.344Z,7.95
2018-12-19T04:48:43.302Z,7.97
2018-12-19T04:49:43.263Z,7.95
2018-12-19T04:50:43.231Z,7.98
2018-12-19T04:51:43.191Z,8.00
2018-12-19T04:52:43.153Z,8.03
2018-12-19T04:53:43.118Z,8.06
2018-12-19T04:54:43.098Z,8.00
2018-12-19T04:55:43.052Z,8.06
2018-12-19T04:56:43.005Z,8.15
2018-12-19T04:57:42.976Z,8.18
2018-12-19T04:58:42.949Z,8.23
2018-12-19T04:59:42.911Z,8.28
2018-12-19T05:00:42.872Z,8.23
2018-12-19T05:01:42.833Z,8.27
2018-12-19T05:02:42.798Z,8.26
2018-12-19T05:03:42.776Z,8.19
2018-12-19T05:04:42.729Z,8.23
2018-12-19T05:05:42.687Z,8.31
2018-12-19T05:06:42.663Z,8.27
2018-12-19T05:07:42.622Z,8.41
2018-12-19T05:08:42.584Z,8.37
2018-12-19T05:09:42.558Z,8.45
2018-12-19T05:10:42.512Z,8.56
2018-12-19T05:11:42.480Z,8.48
2018-12-19T05:12:42.441Z,8.52
2018-12-19T05:13:42.414Z,8.51
2018-12-19T05:14:42.369Z,8.53
2018-12-19T05:15:42.338Z,8.56
2018-12-19T05:16:42.303Z,8.60
2018-12-19T05:17:42.260Z,8.58
2018-12-19T05:18:42.228Z,8.67
2018-12-19T05:19:42.205Z,8.67
2018-12-19T05:20:42.163Z,8.67
2018-12-19T05:21:42.123Z,8.63
2018-12-19T05:22:42.082Z,8.63
2018-12-19T05:23:42.058Z,8.69
2018-12-19T05:24:42.007Z,8.70
2018-12-19T05:25:41.979Z,8.67
2018-12-19T05:26:41.941Z,8.74
2018-12-19T05:27:41.908Z,8.70
2018-12-19T05:28:41.873Z,8.69
2018-12-19T05:29:41.834Z,8.76
2018-12-19T05:30:41.808Z,8.76
2018-12-19T05:31:41.775Z,8.74
2018-12-19T05:32:41.733Z,8.79
2018-12-19T05:33:41.698Z,8.74
2018-12-19T05:34:41.669Z,8.87
2018-12-19T05:35:41.624Z,8.87
2018-12-19T05:36:41.594Z,8.74
2018-12-19T05:37:41.550Z,8.76
2018-12-19T05:38:41.523Z,8.87
2018-12-19T05:39:41.485Z,8.82
2018-12-19T05:40:41.445Z,8.81
2018-12-19T05:41:41.416Z,8.82
2018-12-19T05:42:41.385Z,8.78
2018-12-19T05:43:41.345Z,8.81
2018-12-19T05:44:41.310Z,8.82
2018-12-19T05:45:41.279Z,8.81
2018-12-19T05:46:41.244Z,8.85
2018-12-19T05:47:41.209Z,8.87
2018-12-19T05:48:41.176Z,8.92
2018-12-19T05:49:41.138Z,8.82
2018-12-19T05:50:41.100Z,8.97
2018-12-19T05:51:41.061Z,8.92
2018-12-19T05:52:41.030Z,8.91
2018-12-19T05:53:40.992Z,8.85
2018-12-19T05:54:41.012Z,8.95
2018-12-19T05:55:40.910Z,8.92
2018-12-19T05:56:40.880Z,8.97
2018-12-19T05:57:40.852Z,9.03
2018-12-19T05:58:40.822Z,8.99
2018-12-19T05:59:40.780Z,9.08
2018-12-19T06:00:40.756Z,9.04
2018-12-19T06:01:40.714Z,9.00
2018-12-19T06:02:40.685Z,8.94
2018-12-19T06:03:40.646Z,8.92
2018-12-19T06:04:40.604Z,8.94
2018-12-19T06:05:40.569Z,9.04
2018-12-19T06:06:40.542Z,9.04
2018-12-19T06:07:40.504Z,9.03
2018-12-19T06:08:40.474Z,9.06
2018-12-19T06:09:40.416Z,9.02
2018-12-19T06:10:40.396Z,8.99
2018-12-19T06:11:40.365Z,9.08
2018-12-19T06:12:40.324Z,9.08
2018-12-19T06:13:40.290Z,9.02
2018-12-19T06:14:40.261Z,8.99
2018-12-19T06:15:40.220Z,8.95
2018-12-19T06:16:40.185Z,9.06
2018-12-19T06:17:40.149Z,9.03
2018-12-19T06:18:40.112Z,9.03
2018-12-19T06:19:40.075Z,9.04
2018-12-19T06:20:40.042Z,9.00
2018-12-19T06:21:40.022Z,9.08
2018-12-19T06:22:39.975Z,9.06
2018-12-19T06:23:39.955Z,9.02
2018-12-19T06:24:39.909Z,9.11
2018-12-19T06:25:39.862Z,9.02
2018-12-19T06:26:39.820Z,9.06
2018-12-19T06:27:39.800Z,9.08
2018-12-19T06:28:39.760Z,9.06
2018-12-19T06:29:39.735Z,9.10
2018-12-19T06:30:39.695Z,9.06
2018-12-19T06:31:39.665Z,9.11
2018-12-19T06:32:39.617Z,9.14
2018-12-19T06:33:39.596Z,9.10
2018-12-19T06:34:39.560Z,9.14
2018-12-19T06:35:39.515Z,9.10
2018-12-19T06:36:39.486Z,9.14
2018-12-19T06:37:39.442Z,9.10
2018-12-19T06:38:39.411Z,9.08
2018-12-19T06:39:39.378Z,9.04
2018-12-19T06:40:39.341Z,9.08
2018-12-19T06:41:39.310Z,9.08
2018-12-19T06:42:39.277Z,9.14
2018-12-19T06:43:39.236Z,9.10
2018-12-19T06:44:39.206Z,9.08
2018-12-19T06:45:39.163Z,9.13
2018-12-19T06:46:39.131Z,9.08
2018-12-19T06:47:39.102Z,9.13
2018-12-19T06:48:39.065Z,9.14
2018-12-19T06:49:39.031Z,9.03
2018-12-19T06:50:38.991Z,9.06
2018-12-19T06:51:38.964Z,9.06
2018-12-19T06:52:38.918Z,9.14
2018-12-19T06:53:38.883Z,9.11
2018-12-19T06:54:38.853Z,9.03
2018-12-19T06:55:38.813Z,9.04
2018-12-19T06:56:38.783Z,9.06
2018-12-19T06:57:38.747Z,9.08
2018-12-19T06:58:38.723Z,9.08
2018-12-19T06:59:38.679Z,9.08
2018-12-19T07:00:38.638Z,9.02
2018-12-19T07:01:38.607Z,9.06
2018-12-19T07:02:38.571Z,9.08
2018-12-19T07:03:38.542Z,9.04
2018-12-19T07:04:38.499Z,9.04
2018-12-19T07:05:38.467Z,9.08
2018-12-19T07:06:38.436Z,9.08
2018-12-19T07:07:38.394Z,9.10
2018-12-19T07:08:38.359Z,9.10
2018-12-19T07:09:38.334Z,9.03
2018-12-19T07:10:39.192Z,9.04
2018-12-19T07:11:38.252Z,9.03
2018-12-19T07:12:38.228Z,9.06
2018-12-19T07:13:38.199Z,9.03
2018-12-19T07:14:38.152Z,9.13
2018-12-19T07:15:38.134Z,9.06
2018-12-19T07:16:43.504Z,9.02
2018-12-19T07:17:38.048Z,9.02
2018-12-19T07:18:38.009Z,9.08
2018-12-19T07:19:37.979Z,9.04
2018-12-19T07:20:37.943Z,9.06
2018-12-19T07:21:37.908Z,9.04
2018-12-19T07:22:37.868Z,9.16
2018-12-19T07:23:37.836Z,9.08
2018-12-19T07:24:37.800Z,8.97
2018-12-19T07:25:37.769Z,9.10
2018-12-19T07:26:37.739Z,9.02
2018-12-19T07:27:37.698Z,9.06
2018-12-19T07:28:37.667Z,9.04
2018-12-19T07:29:37.623Z,9.00
2018-12-19T07:30:37.600Z,9.08
2018-12-19T07:31:37.560Z,9.16
2018-12-19T07:32:37.525Z,9.03
2018-12-19T07:33:37.483Z,9.06
2018-12-19T07:34:37.454Z,9.06
2018-12-19T07:35:37.410Z,8.99
2018-12-19T07:36:37.379Z,9.00
2018-12-19T07:37:37.351Z,9.03
2018-12-19T07:38:37.311Z,9.03
2018-12-19T07:39:37.279Z,8.94
2018-12-19T07:40:37.239Z,8.97
2018-12-19T07:41:37.200Z,8.92
2018-12-19T07:42:37.169Z,8.94
2018-12-19T07:43:37.141Z,9.00
2018-12-19T07:44:37.099Z,8.91
2018-12-19T07:45:37.060Z,8.81
2018-12-19T07:46:37.038Z,8.71
2018-12-19T07:47:37.001Z,8.71
2018-12-19T07:48:36.956Z,8.76
2018-12-19T07:49:36.924Z,8.69
2018-12-19T07:50:36.894Z,8.78
2018-12-19T07:51:36.856Z,8.73
2018-12-19T07:52:36.826Z,8.69
2018-12-19T07:53:36.786Z,8.73
2018-12-19T07:54:36.744Z,8.64
2018-12-19T07:55:36.719Z,8.60
2018-12-19T07:56:36.682Z,8.69
2018-12-19T07:57:36.639Z,8.60
2018-12-19T07:58:36.605Z,8.64
2018-12-19T07:59:36.580Z,8.63
2018-12-19T08:00:36.545Z,8.56
2018-12-19T08:01:36.503Z,8.53
2018-12-19T08:02:36.464Z,8.52
2018-12-19T08:03:36.430Z,8.58
2018-12-19T08:04:36.394Z,8.58
2018-12-19T08:05:36.356Z,8.55
2018-12-19T08:06:36.322Z,8.58
2018-12-19T08:07:36.292Z,8.58
2018-12-19T08:08:36.262Z,8.55
2018-12-19T08:09:36.214Z,8.48
2018-12-19T08:10:36.185Z,8.53
2018-12-19T08:11:36.151Z,8.56
2018-12-19T08:12:36.381Z,8.46
2018-12-19T08:13:36.076Z,8.53
2018-12-19T08:14:36.048Z,8.51
2018-12-19T08:15:36.004Z,8.56
2018-12-19T08:16:35.966Z,8.56
2018-12-19T08:17:35.940Z,8.55
2018-12-19T08:18:35.902Z,8.53
2018-12-19T08:19:35.857Z,8.58
2018-12-19T08:20:35.839Z,8.60
2018-12-19T08:21:35.784Z,8.55
2018-12-19T08:22:35.752Z,8.56
2018-12-19T08:23:35.727Z,8.56
2018-12-19T08:24:35.689Z,8.53
2018-12-19T08:25:35.654Z,8.60
2018-12-19T08:26:35.628Z,8.64
2018-12-19T08:27:35.581Z,8.69
2018-12-19T08:28:35.545Z,8.67
2018-12-19T08:29:44.176Z,8.67
2018-12-19T08:31:39.920Z,8.69
2018-12-19T08:32:39.857Z,8.69
2018-12-19T08:33:39.821Z,8.73
2018-12-19T08:34:39.795Z,8.67
2018-12-19T08:35:39.751Z,8.78
2018-12-19T08:36:39.712Z,8.79
2018-12-19T08:37:39.680Z,8.76
2018-12-19T08:38:39.642Z,8.73
2018-12-19T08:39:39.613Z,8.66
2018-12-19T08:40:39.577Z,8.67
2018-12-19T08:41:39.547Z,8.69
2018-12-19T08:42:39.497Z,8.82
2018-12-19T08:43:39.463Z,8.78
2018-12-19T08:44:39.443Z,8.91
2018-12-19T08:45:39.398Z,8.88
2018-12-19T08:46:39.361Z,8.84
2018-12-19T08:47:39.338Z,8.89
2018-12-19T08:48:39.291Z,8.85
2018-12-19T08:49:39.281Z,8.84
2018-12-19T08:50:39.217Z,8.84
2018-12-19T08:51:39.186Z,8.85
2018-12-19T08:52:39.149Z,8.99
2018-12-19T08:53:39.113Z,8.99
2018-12-19T08:54:39.077Z,8.92
2018-12-19T08:55:39.053Z,8.97
2018-12-19T08:56:39.023Z,9.03
2018-12-19T08:57:39.031Z,9.02
2018-12-19T08:58:38.949Z,9.03
2018-12-19T08:59:38.918Z,9.11
2018-12-19T09:00:38.887Z,9.04
2018-12-19T09:01:38.839Z,9.03
2018-12-19T09:02:38.803Z,9.10
2018-12-19T09:03:38.773Z,9.16
2018-12-19T09:04:38.737Z,9.13
2018-12-19T09:05:38.704Z,9.25
2018-12-19T09:06:38.699Z,9.25
2018-12-19T09:07:38.630Z,9.32
2018-12-19T09:08:38.593Z,9.34
2018-12-19T09:09:38.593Z,9.31
2018-12-19T09:10:38.520Z,9.41
2018-12-19T09:11:38.499Z,9.40
2018-12-19T09:12:38.460Z,9.40
2018-12-19T09:13:38.425Z,9.46
2018-12-19T09:14:38.395Z,9.47
2018-12-19T09:15:38.344Z,9.40
2018-12-19T09:16:38.349Z,9.58
2018-12-19T09:17:38.287Z,9.56
2018-12-19T09:18:38.264Z,9.46
2018-12-19T09:19:38.225Z,9.59
2018-12-19T09:20:38.168Z,9.51
2018-12-19T09:21:38.147Z,9.58
2018-12-19T09:22:38.103Z,9.56
2018-12-19T09:23:38.085Z,9.56
2018-12-19T09:24:38.029Z,9.58
2018-12-19T09:25:38.024Z,9.58
2018-12-19T09:26:37.990Z,9.58
2018-12-19T09:27:37.930Z,9.59
2018-12-19T09:28:37.903Z,9.61
2018-12-19T09:29:37.883Z,9.59
2018-12-19T09:30:37.843Z,9.62
2018-12-19T09:31:37.789Z,9.66
2018-12-19T09:32:37.750Z,9.66
2018-12-19T09:33:37.726Z,9.74
2018-12-19T09:34:37.692Z,9.72
2018-12-19T09:35:37.662Z,9.73
2018-12-19T09:36:37.620Z,9.79
2018-12-19T09:37:37.589Z,9.83
2018-12-19T09:38:37.593Z,9.82
2018-12-19T09:39:37.510Z,9.92
2018-12-19T09:40:37.486Z,10.12
2018-12-19T09:41:37.445Z,10.16
2018-12-19T09:42:37.423Z,10.23
2018-12-19T09:43:37.388Z,10.40
2018-12-19T09:44:37.341Z,10.67
2018-12-19T09:45:37.329Z,10.79
2018-12-19T09:46:37.289Z,11.07
2018-12-19T09:47:37.260Z,11.22
2018-12-19T09:48:37.228Z,11.45
2018-12-19T09:49:37.208Z,11.70
2018-12-19T09:50:37.148Z,11.97
2018-12-19T09:51:37.114Z,12.28
2018-12-19T09:52:37.080Z,12.67
2018-12-19T09:53:37.055Z,12.78
2018-12-19T09:54:37.015Z,13.01
2018-12-19T09:55:36.986Z,13.30
2018-12-19T09:56:36.952Z,13.54
2018-12-19T09:57:36.922Z,13.75
2018-12-19T09:58:36.899Z,13.96
2018-12-19T09:59:36.860Z,14.20
2018-12-19T10:00:36.855Z,14.37
2018-12-19T10:01:36.804Z,14.58
2018-12-19T10:02:36.784Z,14.82
2018-12-19T10:03:36.743Z,15.15
2018-12-19T10:04:36.720Z,15.36
2018-12-19T10:05:36.700Z,15.43
2018-12-19T10:06:36.659Z,15.44
2018-12-19T10:07:36.626Z,15.28
2018-12-19T10:08:36.604Z,15.42
2018-12-19T10:09:36.566Z,15.33
2018-12-19T10:10:36.595Z,15.27
2018-12-19T10:11:36.509Z,15.37
2018-12-19T10:12:36.499Z,15.47
2018-12-19T10:13:36.446Z,15.67
2018-12-19T10:14:36.500Z,15.42
2018-12-19T10:15:36.406Z,15.46
2018-12-19T10:16:36.375Z,15.73
2018-12-19T10:17:40.945Z,15.98
2018-12-19T10:18:36.321Z,16.04
2018-12-19T10:19:36.292Z,16.41
2018-12-19T10:20:36.257Z,16.57
2018-12-19T10:21:36.231Z,16.76
2018-12-19T10:22:36.205Z,16.66
2018-12-19T10:23:36.178Z,16.89
2018-12-19T10:24:36.150Z,17.12
2018-12-19T10:25:36.137Z,16.76
2018-12-19T10:26:36.092Z,16.83
2018-12-19T10:27:36.075Z,16.94
2018-12-19T10:28:36.047Z,17.20
2018-12-19T10:29:36.023Z,17.33
2018-12-19T10:30:35.996Z,17.71
2018-12-19T10:31:35.977Z,17.79
2018-12-19T10:32:35.932Z,18.03
2018-12-19T10:33:35.913Z,18.13
2018-12-19T10:34:35.891Z,18.15
2018-12-19T10:35:35.877Z,18.10
2018-12-19T10:36:35.835Z,18.37
2018-12-19T10:37:35.812Z,18.33
2018-12-19T10:38:35.783Z,18.47
2018-12-19T10:39:35.756Z,18.62
2018-12-19T10:40:35.723Z,18.53
2018-12-19T10:41:35.728Z,18.16
2018-12-19T10:42:35.687Z,18.41
2018-12-19T10:43:35.658Z,18.65
2018-12-19T10:44:35.628Z,18.90
2018-12-19T10:45:35.640Z,19.16
2018-12-19T10:46:35.574Z,19.44
2018-12-19T10:47:35.548Z,19.51
2018-12-19T10:48:35.526Z,19.59
2018-12-19T10:49:35.544Z,19.62
2018-12-19T10:50:35.483Z,19.64
2018-12-19T10:51:35.451Z,19.27
2018-12-19T10:52:35.428Z,19.37
2018-12-19T10:53:35.428Z,19.08
2018-12-19T10:54:35.371Z,18.83
2018-12-19T10:55:35.347Z,19.09
2018-12-19T10:56:35.322Z,19.24
2018-12-19T10:57:35.293Z,19.21
2018-12-19T10:58:35.277Z,19.30
2018-12-19T10:59:35.251Z,19.41
2018-12-19T11:00:35.222Z,19.15
2018-12-19T11:01:35.208Z,19.34
2018-12-19T11:02:35.188Z,19.41
2018-12-19T11:03:35.164Z,19.21
2018-12-19T11:04:35.124Z,19.14
2018-12-19T11:05:35.095Z,19.26
2018-12-19T11:06:35.089Z,19.58
2018-12-19T11:07:35.048Z,19.77
2018-12-19T11:08:35.031Z,19.71
2018-12-19T11:09:35.023Z,19.73
2018-12-19T11:10:34.972Z,19.52
2018-12-19T11:11:34.950Z,19.70
2018-12-19T11:12:34.942Z,20.09
2018-12-19T11:13:34.905Z,20.16
2018-12-19T11:14:34.878Z,19.94
2018-12-19T11:15:34.853Z,19.69
2018-12-19T11:16:34.839Z,19.44
2018-12-19T11:17:34.803Z,19.31
2018-12-19T11:18:34.774Z,18.63
2018-12-19T11:19:34.753Z,17.85
2018-12-19T11:20:34.726Z,16.64
2018-12-19T11:21:34.699Z,16.05
2018-12-19T11:22:34.684Z,16.09
2018-12-19T11:23:34.651Z,15.90
2018-12-19T11:24:34.660Z,15.98
2018-12-19T11:25:34.595Z,15.65
2018-12-19T11:26:34.556Z,15.42
2018-12-19T11:27:34.555Z,15.43
2018-12-19T11:28:34.515Z,15.24
2018-12-19T11:29:34.486Z,15.09
2018-12-19T11:30:34.450Z,14.60
2018-12-19T11:31:34.483Z,14.44
2018-12-19T11:32:34.396Z,13.93
2018-12-19T11:33:34.371Z,13.86
2018-12-19T11:34:34.355Z,13.47
2018-12-19T11:35:34.308Z,13.28
2018-12-19T11:36:34.281Z,13.16
2018-12-19T11:37:34.245Z,13.04
2018-12-19T11:38:34.246Z,13.09
2018-12-19T11:39:34.224Z,13.19
2018-12-19T11:40:34.158Z,13.08
2018-12-19T11:41:38.945Z,12.87
2018-12-19T11:42:34.109Z,12.70
2018-12-19T11:43:34.071Z,12.67
2018-12-19T11:44:34.074Z,12.62
2018-12-19T11:45:33.991Z,12.61
2018-12-19T11:46:33.972Z,12.55
2018-12-19T11:47:33.929Z,12.64
2018-12-19T11:48:33.936Z,12.62
2018-12-19T11:49:33.875Z,12.54
2018-12-19T11:50:33.841Z,12.40
2018-12-19T11:51:33.832Z,12.47
2018-12-19T11:52:33.781Z,12.42
2018-12-19T11:53:33.773Z,12.61
2018-12-19T11:54:33.720Z,12.64
2018-12-19T11:55:33.705Z,12.64
2018-12-19T11:56:33.650Z,12.67
2018-12-19T11:57:34.429Z,12.67
2018-12-19T11:58:33.606Z,12.60
2018-12-19T11:59:33.556Z,12.53
2018-12-19T12:00:33.558Z,12.57
2018-12-19T12:01:33.495Z,12.62
2018-12-19T12:02:33.476Z,12.87
2018-12-19T12:03:33.651Z,13.30
2018-12-19T12:04:33.402Z,13.74
2018-12-19T12:05:33.366Z,14.12
2018-12-19T12:06:33.341Z,14.28
2018-12-19T12:07:33.306Z,14.68
2018-12-19T12:08:33.275Z,14.66
2018-12-19T12:09:33.253Z,14.66
2018-12-19T12:10:33.214Z,14.97
2018-12-19T12:11:33.182Z,15.51
2018-12-19T12:12:33.164Z,15.98
2018-12-19T12:13:33.140Z,15.94
2018-12-19T12:14:33.106Z,16.09
2018-12-19T12:15:33.071Z,15.83
2018-12-19T12:16:33.066Z,15.62
2018-12-19T12:17:33.034Z,15.88
2018-12-19T12:18:32.998Z,16.05
2018-12-19T12:19:32.987Z,15.95
2018-12-19T12:20:32.968Z,15.80
2018-12-19T12:21:32.898Z,15.27
2018-12-19T12:22:32.869Z,15.09
2018-12-19T12:23:32.859Z,15.57
2018-12-19T12:24:32.807Z,15.75
2018-12-19T12:25:32.797Z,16.28
2018-12-19T12:26:32.762Z,16.46
2018-12-19T12:27:32.732Z,16.71
2018-12-19T12:28:32.701Z,17.05
2018-12-19T12:29:32.678Z,17.45
2018-12-19T12:30:32.643Z,17.83
2018-12-19T12:31:32.615Z,17.95
2018-12-19T12:32:32.603Z,18.11
2018-12-19T12:33:32.558Z,18.23
2018-12-19T12:34:32.526Z,18.45
2018-12-19T12:35:32.511Z,18.47
2018-12-19T12:36:32.489Z,18.63
2018-12-19T12:37:32.484Z,18.56
2018-12-19T12:38:34.211Z,18.88
2018-12-19T12:39:32.399Z,19.11
2018-12-19T12:40:32.373Z,19.14
2018-12-19T12:41:32.351Z,19.12
2018-12-19T12:42:32.340Z,19.22
2018-12-19T12:43:32.308Z,19.59
2018-12-19T12:44:32.275Z,19.84
2018-12-19T12:45:32.269Z,19.67
2018-12-19T12:46:32.223Z,19.79
2018-12-19T12:47:32.183Z,19.41
2018-12-19T12:48:32.165Z,19.12
2018-12-19T12:49:32.153Z,18.68
2018-12-19T12:50:32.158Z,18.47
2018-12-19T12:51:32.098Z,18.31
2018-12-19T12:52:32.065Z,18.15
2018-12-19T12:53:32.062Z,17.78
2018-12-19T12:54:32.016Z,17.64
2018-12-19T12:55:31.996Z,17.70
2018-12-19T12:56:31.955Z,17.97
2018-12-19T12:57:31.939Z,17.71
2018-12-19T12:58:31.897Z,17.36
2018-12-19T12:59:31.879Z,17.20
2018-12-19T13:00:31.849Z,17.14
2018-12-19T13:01:31.830Z,16.78
2018-12-19T13:02:31.820Z,16.61
2018-12-19T13:03:31.765Z,16.51
2018-12-19T13:04:31.731Z,16.28
2018-12-19T13:05:31.718Z,16.12
2018-12-19T13:06:31.676Z,16.00
2018-12-19T13:07:31.649Z,15.54
2018-12-19T13:08:31.632Z,15.22
2018-12-19T13:09:31.594Z,15.09
2018-12-19T13:10:36.218Z,14.77
2018-12-19T13:11:31.531Z,14.66
2018-12-19T13:12:31.526Z,14.72
2018-12-19T13:13:31.475Z,14.37